Time;durP1;ratioP1;P1;durP2;ratioP2;P2;SDS_P1;SDS_P2;PMS_P1;PMS_P2;Temp;Humidity;BMP_temperature;BMP_pressure;BME280_temperature;BME280_humidity;BME280_pressure;Samples;Min_cycle;Max_cycle;Signal;HPM_P1;HPM_P2
2022/08/13 00:02:19;;;;;;;;;8.50;8.50;;;;;;;;5170628;28;8774;-74
2022/08/13 00:05:09;;;;;;;;;9.25;9.25;;;;;;;;5186676;28;8804;-74
2022/08/13 00:07:40;;;;;;;;;8.25;8.25;;;;;;;;5171231;28;8770;-73
2022/08/13 00:10:14;;;;;;;;;6.00;6.00;;;;;;;;5154614;28;8803;-74
2022/08/13 00:12:57;;;;;;;;;7.50;7.50;;;;;;;;5186908;28;8777;-74
2022/08/13 00:15:47;;;;;;;;;9.00;8.50;;;;;;;;5189944;28;8848;-74
2022/08/13 00:18:23;;;;;;;;;3.75;3.75;;;;;;;;5164656;28;8821;-73
2022/08/13 00:20:55;;;;;;;;;8.50;8.50;;;;;;;;5192173;28;8775;-73
2022/08/13 00:23:45;;;;;;;;;8.25;8.25;;;;;;;;5228714;28;8771;-73
2022/08/13 00:26:16;;;;;;;;;8.75;8.75;;;;;;;;5194671;28;8873;-73
2022/08/13 00:28:49;;;;;;;;;8.75;8.75;;;;;;;;5194424;28;8771;-74
2022/08/13 00:31:21;;;;;;;;;6.00;6.00;;;;;;;;5181945;28;8805;-74
2022/08/13 00:33:54;;;;;;;;;7.00;7.00;;;;;;;;5157974;28;8809;-73
2022/08/13 00:36:30;;;;;;;;;8.00;8.00;;;;;;;;5157618;28;8791;-73
2022/08/13 00:39:03;;;;;;;;;8.25;8.25;;;;;;;;5157682;28;8838;-73
2022/08/13 00:41:39;;;;;;;;;9.00;9.00;;;;;;;;5190277;28;8811;-73
2022/08/13 00:44:11;;;;;;;;;8.50;8.50;;;;;;;;5173691;28;8822;-74
2022/08/13 00:46:43;;;;;;;;;9.00;9.00;;;;;;;;5160778;28;8801;-73
2022/08/13 00:49:15;;;;;;;;;10.00;9.25;;;;;;;;5173631;28;8788;-73
2022/08/13 00:52:07;;;;;;;;;6.50;6.50;;;;;;;;5192629;28;8789;-74
2022/08/13 00:54:42;;;;;;;;;5.50;5.50;;;;;;;;5224032;28;8799;-74
2022/08/13 00:57:13;;;;;;;;;8.00;8.00;;;;;;;;5200583;28;8821;-74
2022/08/13 01:00:11;;;;;;;;;8.00;8.00;;;;;;;;5190155;28;8781;-75
2022/08/13 01:02:43;;;;;;;;;7.00;7.00;;;;;;;;5173587;28;8801;-75
2022/08/13 01:05:15;;;;;;;;;5.00;5.00;;;;;;;;5157003;28;8872;-75
2022/08/13 01:07:46;;;;;;;;;8.75;8.75;;;;;;;;5190269;28;8813;-75
2022/08/13 01:10:19;;;;;;;;;7.50;7.50;;;;;;;;5173604;28;8773;-76
2022/08/13 01:12:51;;;;;;;;;7.75;7.75;;;;;;;;5189469;28;8840;-76
2022/08/13 01:15:23;;;;;;;;;7.50;7.50;;;;;;;;5206208;28;8781;-76
2022/08/13 01:17:54;;;;;;;;;7.00;7.00;;;;;;;;5226476;28;8838;-76
2022/08/13 01:20:26;;;;;;;;;8.25;8.25;;;;;;;;5227820;28;8779;-76
2022/08/13 01:22:58;;;;;;;;;9.00;9.00;;;;;;;;5239306;28;8821;-76
2022/08/13 01:25:31;;;;;;;;;6.75;6.75;;;;;;;;5208498;28;8775;-76
2022/08/13 01:28:02;;;;;;;;;7.00;7.00;;;;;;;;5230534;28;8900;-75
2022/08/13 01:30:52;;;;;;;;;7.25;7.25;;;;;;;;5212505;28;8791;-74
2022/08/13 01:33:43;;;;;;;;;6.50;6.50;;;;;;;;5194930;28;8795;-74
2022/08/13 01:36:15;;;;;;;;;8.00;8.00;;;;;;;;5176682;28;8806;-74
2022/08/13 01:38:46;;;;;;;;;6.75;6.75;;;;;;;;5176830;28;8872;-74
2022/08/13 01:41:18;;;;;;;;;7.50;7.50;;;;;;;;5193308;28;8790;-72
2022/08/13 01:43:49;;;;;;;;;9.75;9.75;;;;;;;;5209753;28;8782;-72
2022/08/13 01:46:20;;;;;;;;;9.50;9.50;;;;;;;;5227201;28;8771;-72
2022/08/13 01:51:55;;;;;;;;;22.25;22.25;;;;;;;;5176273;28;8926;-73
2022/08/13 01:54:45;;;;;;;;;30.00;29.60;;;;;;;;5208235;28;8798;-74
2022/08/13 01:57:17;;;;;;;;;18.25;18.25;;;;;;;;5156194;28;8867;-74
2022/08/13 01:59:48;;;;;;;;;6.25;6.25;;;;;;;;5172651;28;8789;-73
2022/08/13 02:02:25;;;;;;;;;12.75;12.75;;;;;;;;5188595;28;8769;-74
2022/08/13 02:04:56;;;;;;;;;7.25;7.25;;;;;;;;5172478;28;8785;-74
2022/08/13 02:07:29;;;;;;;;;5.00;5.00;;;;;;;;5204887;28;8797;-74
2022/08/13 02:10:22;;;;;;;;;8.00;8.00;;;;;;;;5195438;28;8803;-74
2022/08/13 02:12:54;;;;;;;;;5.00;5.00;;;;;;;;5209357;28;8909;-74
2022/08/13 02:15:25;;;;;;;;;8.75;8.75;;;;;;;;5192695;28;8791;-75
2022/08/13 02:17:57;;;;;;;;;6.00;6.00;;;;;;;;5191574;28;8888;-75
2022/08/13 02:20:28;;;;;;;;;6.00;6.00;;;;;;;;5226915;28;8775;-74
2022/08/13 02:23:00;;;;;;;;;4.75;4.75;;;;;;;;5191596;28;8779;-72
2022/08/13 02:25:33;;;;;;;;;4.00;4.00;;;;;;;;5226252;28;8834;-74
2022/08/13 02:28:04;;;;;;;;;6.50;6.50;;;;;;;;5208294;28;8791;-74
2022/08/13 02:30:35;;;;;;;;;5.50;5.50;;;;;;;;5178575;28;8781;-74
2022/08/13 02:33:06;;;;;;;;;5.00;5.00;;;;;;;;5205211;28;8915;-74
2022/08/13 02:35:37;;;;;;;;;5.25;5.25;;;;;;;;5187732;28;8789;-74
2022/08/13 02:38:11;;;;;;;;;5.50;5.50;;;;;;;;5171330;28;8837;-74
2022/08/13 02:43:33;;;;;;;;;7.00;7.00;;;;;;;;5171412;28;8805;-74
2022/08/13 02:46:05;;;;;;;;;7.00;7.00;;;;;;;;5174210;28;8802;-74
2022/08/13 02:48:36;;;;;;;;;5.50;5.50;;;;;;;;5191509;28;8945;-74
2022/08/13 02:51:07;;;;;;;;;5.00;5.00;;;;;;;;5206100;28;8833;-73
2022/08/13 02:53:39;;;;;;;;;7.00;7.00;;;;;;;;5207726;28;8809;-74
2022/08/13 02:56:10;;;;;;;;;41.40;36.00;;;;;;;;5191542;28;8802;-73
2022/08/13 02:58:42;;;;;;;;;9.75;9.75;;;;;;;;5191789;28;8842;-74
2022/08/13 03:01:34;;;;;;;;;13.67;13.67;;;;;;;;5208185;28;8829;-75
2022/08/13 03:04:23;;;;;;;;;4.00;4.00;;;;;;;;5193993;28;8790;-75
2022/08/13 03:06:54;;;;;;;;;3.75;3.75;;;;;;;;5207681;28;8803;-77
2022/08/13 03:09:25;;;;;;;;;13.00;13.00;;;;;;;;5207819;28;8807;-75
2022/08/13 03:12:02;;;;;;;;;5.00;5.00;;;;;;;;5197435;28;8793;-76
2022/08/13 03:14:34;;;;;;;;;23.00;23.00;;;;;;;;5155316;28;8792;-75
2022/08/13 03:17:05;;;;;;;;;5.00;5.00;;;;;;;;5145187;28;8853;-76
2022/08/13 03:19:37;;;;;;;;;5.00;5.00;;;;;;;;5163102;28;8797;-76
2022/08/13 03:22:08;;;;;;;;;3.50;3.50;;;;;;;;5156460;28;8819;-74
2022/08/13 03:24:39;;;;;;;;;5.00;5.00;;;;;;;;5166581;28;8783;-73
2022/08/13 03:27:11;;;;;;;;;4.25;4.25;;;;;;;;5183338;28;8941;-74
2022/08/13 03:29:42;;;;;;;;;4.00;4.00;;;;;;;;5183257;28;8806;-73
2022/08/13 03:32:14;;;;;;;;;134.40;107.60;;;;;;;;5150512;28;8854;-74
2022/08/13 03:34:45;;;;;;;;;20.75;19.75;;;;;;;;5130766;28;8928;-74
2022/08/13 03:37:16;;;;;;;;;10.75;10.75;;;;;;;;5162488;28;8841;-74
2022/08/13 03:39:47;;;;;;;;;5.25;5.25;;;;;;;;5130847;28;8790;-74
2022/08/13 03:42:18;;;;;;;;;3.75;3.75;;;;;;;;5146893;28;8786;-74
2022/08/13 03:44:49;;;;;;;;;4.00;4.00;;;;;;;;5130746;28;8794;-78
2022/08/13 03:47:20;;;;;;;;;3.00;3.00;;;;;;;;5181117;28;8803;-77
2022/08/13 03:50:11;;;;;;;;;2.50;2.50;;;;;;;;5182291;28;8906;-77
2022/08/13 03:52:42;;;;;;;;;1.75;1.75;;;;;;;;5184087;28;8779;-76
2022/08/13 03:55:15;;;;;;;;;0.00;0.00;;;;;;;;5183028;28;8818;-77
2022/08/13 03:57:48;;;;;;;;;2.50;2.50;;;;;;;;5170564;28;8974;-76
2022/08/13 04:00:20;;;;;;;;;8.25;8.25;;;;;;;;5154245;28;8814;-75
2022/08/13 04:03:41;;;;;;;;;3.00;3.00;;;;;;;;5172981;28;8921;-75
2022/08/13 04:06:16;;;;;;;;;3.75;3.75;;;;;;;;5153270;28;8814;-76
2022/08/13 04:08:48;;;;;;;;;5.50;5.50;;;;;;;;5166382;28;8793;-75
2022/08/13 04:11:21;;;;;;;;;2.50;2.50;;;;;;;;5150762;28;8796;-77
2022/08/13 04:13:53;;;;;;;;;3.00;3.00;;;;;;;;5150461;28;8801;-78
2022/08/13 04:16:25;;;;;;;;;4.00;4.00;;;;;;;;5163121;28;8821;-77
2022/08/13 04:18:56;;;;;;;;;2.75;2.75;;;;;;;;5204595;28;8972;-76
2022/08/13 04:21:31;;;;;;;;;3.00;3.00;;;;;;;;5171066;28;8789;-78
2022/08/13 04:24:21;;;;;;;;;2.50;2.50;;;;;;;;5211242;28;8830;-76
2022/08/13 04:26:54;;;;;;;;;2.75;2.75;;;;;;;;5207572;28;8813;-77
2022/08/13 04:29:43;;;;;;;;;2.25;2.25;;;;;;;;5213567;28;8777;-75
2022/08/13 04:32:14;;;;;;;;;1.00;1.00;;;;;;;;5205125;28;8915;-75
2022/08/13 04:34:45;;;;;;;;;5.75;5.75;;;;;;;;5187273;28;8956;-76
2022/08/13 04:37:19;;;;;;;;;8.75;8.75;;;;;;;;5155107;28;8844;-75
2022/08/13 04:39:51;;;;;;;;;3.50;3.50;;;;;;;;5205025;28;8805;-77
2022/08/13 04:42:22;;;;;;;;;7.00;7.00;;;;;;;;5171518;28;8805;-76
2022/08/13 04:44:53;;;;;;;;;2.33;2.33;;;;;;;;5201696;28;8816;-77
2022/08/13 04:47:25;;;;;;;;;19.50;19.50;;;;;;;;5225796;28;10105;-76
2022/08/13 04:49:56;;;;;;;;;6.00;6.00;;;;;;;;5174628;28;8813;-77
2022/08/13 04:52:27;;;;;;;;;6.00;6.00;;;;;;;;5220912;28;8804;-81
2022/08/13 04:55:01;;;;;;;;;4.00;4.00;;;;;;;;5187991;28;12163;-78
2022/08/13 04:57:35;;;;;;;;;4.00;4.00;;;;;;;;5172279;28;8840;-79
2022/08/13 05:00:06;;;;;;;;;2.25;2.25;;;;;;;;5168553;28;8819;-76
2022/08/13 05:02:38;;;;;;;;;10.00;10.00;;;;;;;;5185260;28;8806;-76
2022/08/13 05:05:11;;;;;;;;;2.75;2.75;;;;;;;;5199188;28;9541;-75
2022/08/13 05:07:49;;;;;;;;;2.00;2.00;;;;;;;;5211733;28;8845;-76
2022/08/13 05:10:20;;;;;;;;;3.00;3.00;;;;;;;;5197902;28;8805;-76
2022/08/13 05:12:52;;;;;;;;;13.50;13.50;;;;;;;;5209610;28;8845;-75
2022/08/13 05:15:24;;;;;;;;;7.50;7.50;;;;;;;;5209338;28;8763;-78
2022/08/13 05:17:55;;;;;;;;;2.50;2.50;;;;;;;;5191775;28;8908;-78
2022/08/13 05:20:28;;;;;;;;;2.00;2.00;;;;;;;;5209495;28;9603;-77
2022/08/13 05:23:05;;;;;;;;;13.00;13.00;;;;;;;;5192300;28;8810;-77
2022/08/13 05:25:36;;;;;;;;;1.75;1.75;;;;;;;;5207081;28;8959;-78
2022/08/13 05:28:08;;;;;;;;;10.00;10.00;;;;;;;;5171826;28;8943;-71
2022/08/13 05:30:39;;;;;;;;;4.00;4.00;;;;;;;;5188424;28;8874;-78
2022/08/13 05:33:14;;;;;;;;;10.00;10.00;;;;;;;;5220617;28;8796;-77
2022/08/13 05:35:48;;;;;;;;;2.00;2.00;;;;;;;;5197456;28;9945;-78
2022/08/13 05:38:23;;;;;;;;;2.00;2.00;;;;;;;;5222018;28;8808;-77
2022/08/13 05:40:59;;;;;;;;;2.00;2.00;;;;;;;;5217942;28;8785;-75
2022/08/13 05:43:33;;;;;;;;;1.75;1.75;;;;;;;;5197931;28;8777;-76
2022/08/13 05:46:08;;;;;;;;;1.75;1.75;;;;;;;;5173100;28;8797;-75
2022/08/13 05:48:58;;;;;;;;;1.25;1.25;;;;;;;;5192210;28;8787;-75
2022/08/13 05:51:31;;;;;;;;;2.00;2.00;;;;;;;;5192964;28;8786;-75
2022/08/13 05:54:02;;;;;;;;;1.00;1.00;;;;;;;;5209388;28;8818;-75
2022/08/13 05:56:36;;;;;;;;;2.50;2.50;;;;;;;;5209032;28;8817;-75
2022/08/13 06:05:10;;;;;;;;;1.50;1.50;;;;;;;;5209159;28;8806;-75
2022/08/13 06:07:42;;;;;;;;;3.00;3.00;;;;;;;;5226554;28;9498;-76
2022/08/13 06:10:31;;;;;;;;;4.00;4.00;;;;;;;;5211895;28;8787;-75
2022/08/13 06:13:03;;;;;;;;;1.25;1.25;;;;;;;;5192805;28;9546;-75
2022/08/13 06:15:35;;;;;;;;;1.00;1.00;;;;;;;;5208941;28;8783;-75
2022/08/13 06:18:06;;;;;;;;;3.25;3.25;;;;;;;;5191778;28;8825;-75
2022/08/13 06:20:40;;;;;;;;;2.00;2.00;;;;;;;;5226719;28;8783;-75
2022/08/13 06:23:14;;;;;;;;;11.50;11.00;;;;;;;;5226467;28;8772;-75
2022/08/13 06:26:07;;;;;;;;;1.75;1.75;;;;;;;;5226240;28;8775;-76
2022/08/13 06:28:42;;;;;;;;;1.25;1.25;;;;;;;;5226360;28;8770;-75
2022/08/13 06:31:16;;;;;;;;;2.00;2.00;;;;;;;;5208822;28;8783;-76
2022/08/13 06:33:47;;;;;;;;;3.25;3.25;;;;;;;;5208815;28;8822;-76
2022/08/13 06:36:18;;;;;;;;;0.00;0.00;;;;;;;;5226466;28;8767;-75
2022/08/13 06:38:50;;;;;;;;;4.50;4.50;;;;;;;;5192372;28;8806;-75
2022/08/13 06:41:21;;;;;;;;;2.00;2.00;;;;;;;;5226983;28;8775;-76
2022/08/13 06:43:53;;;;;;;;;1.00;1.00;;;;;;;;5209691;28;8837;-76
2022/08/13 06:46:26;;;;;;;;;1.75;1.75;;;;;;;;5213735;28;8795;-77
2022/08/13 06:49:15;;;;;;;;;0.75;0.75;;;;;;;;5216463;28;8787;-77
2022/08/13 06:51:46;;;;;;;;;1.50;1.50;;;;;;;;5215672;28;8767;-76
2022/08/13 06:54:18;;;;;;;;;1.25;1.25;;;;;;;;5209625;28;8992;-74
2022/08/13 06:56:49;;;;;;;;;2.00;2.00;;;;;;;;5176195;28;8795;-76
2022/08/13 06:59:21;;;;;;;;;1.00;1.00;;;;;;;;5208618;28;8787;-74
2022/08/13 07:01:59;;;;;;;;;1.00;1.00;;;;;;;;5192102;28;8810;-75
2022/08/13 07:04:30;;;;;;;;;1.75;1.75;;;;;;;;5193036;28;8794;-75
2022/08/13 07:07:02;;;;;;;;;1.75;1.75;;;;;;;;5226246;28;8783;-74
2022/08/13 07:09:33;;;;;;;;;1.25;1.25;;;;;;;;5191557;28;9609;-75
2022/08/13 07:12:24;;;;;;;;;2.00;2.00;;;;;;;;5225838;28;8779;-75
2022/08/13 07:14:55;;;;;;;;;2.00;2.00;;;;;;;;5192050;28;8787;-75
2022/08/13 07:17:28;;;;;;;;;3.00;3.00;;;;;;;;5207632;28;8823;-75
2022/08/13 07:19:59;;;;;;;;;3.00;3.00;;;;;;;;5191474;28;8898;-75
2022/08/13 07:22:31;;;;;;;;;5.00;5.00;;;;;;;;5207691;28;8909;-75
2022/08/13 07:25:03;;;;;;;;;0.00;0.00;;;;;;;;5191698;28;8884;-75
2022/08/13 07:27:36;;;;;;;;;2.00;2.00;;;;;;;;5207852;28;8902;-75
2022/08/13 07:30:07;;;;;;;;;1.50;1.50;;;;;;;;5207932;28;8856;-75
2022/08/13 07:32:38;;;;;;;;;3.00;3.00;;;;;;;;5212142;28;8791;-75
2022/08/13 07:35:11;;;;;;;;;2.50;2.50;;;;;;;;5229731;28;8815;-75
2022/08/13 07:37:42;;;;;;;;;1.00;1.00;;;;;;;;5211998;28;9606;-75
2022/08/13 07:40:13;;;;;;;;;3.00;3.00;;;;;;;;5211940;28;8787;-76
2022/08/13 07:42:44;;;;;;;;;14.50;14.50;;;;;;;;5229867;28;8783;-75
2022/08/13 07:45:21;;;;;;;;;2.00;2.00;;;;;;;;5195353;28;8794;-75
2022/08/13 07:48:10;;;;;;;;;0.25;0.25;;;;;;;;5229813;28;8787;-75
2022/08/13 07:51:00;;;;;;;;;4.25;4.25;;;;;;;;5211926;28;8771;-75
2022/08/13 07:53:35;;;;;;;;;1.00;1.00;;;;;;;;5195097;28;8841;-75
2022/08/13 07:56:06;;;;;;;;;2.00;2.00;;;;;;;;5195212;28;9580;-76
2022/08/13 07:58:37;;;;;;;;;7.75;7.75;;;;;;;;5211739;28;8802;-76
2022/08/13 08:01:10;;;;;;;;;1.00;1.00;;;;;;;;5229652;28;8787;-77
2022/08/13 08:04:03;;;;;;;;;1.75;1.75;;;;;;;;5229161;28;8782;-77
2022/08/13 08:06:34;;;;;;;;;5.75;5.00;;;;;;;;5229044;28;8782;-76
2022/08/13 08:09:07;;;;;;;;;4.25;4.25;;;;;;;;5229535;28;8783;-76
2022/08/13 08:14:46;;;;;;;;;1.50;1.50;;;;;;;;5210963;28;9461;-76
2022/08/13 08:17:18;;;;;;;;;0.00;0.00;;;;;;;;5210967;28;8844;-77
2022/08/13 08:19:50;;;;;;;;;4.00;4.00;;;;;;;;5228968;28;8783;-77
2022/08/13 08:22:23;;;;;;;;;10.25;10.25;;;;;;;;5228783;28;8813;-77
2022/08/13 08:24:54;;;;;;;;;2.00;2.00;;;;;;;;5228812;28;8775;-77
2022/08/13 08:27:25;;;;;;;;;3.00;3.00;;;;;;;;5229553;28;8782;-77
2022/08/13 08:30:16;;;;;;;;;0.50;0.50;;;;;;;;5229234;28;8767;-77
2022/08/13 08:32:52;;;;;;;;;2.75;2.75;;;;;;;;5178251;28;8929;-77
2022/08/13 08:35:41;;;;;;;;;2.50;2.50;;;;;;;;5228967;28;8786;-77
2022/08/13 08:44:10;;;;;;;;;44.60;38.20;;;;;;;;5223890;28;8771;-78
2022/08/13 08:47:01;;;;;;;;;16.25;16.25;;;;;;;;5238886;28;8767;-78
2022/08/13 08:49:32;;;;;;;;;5.50;5.50;;;;;;;;5210924;28;8884;-78
2022/08/13 08:52:03;;;;;;;;;2.00;2.00;;;;;;;;5228629;28;8779;-77
2022/08/13 08:54:35;;;;;;;;;2.50;2.50;;;;;;;;5210374;28;8841;-78
2022/08/13 08:57:06;;;;;;;;;10.00;10.00;;;;;;;;5194111;28;8783;-77
2022/08/13 08:59:41;;;;;;;;;7.25;7.25;;;;;;;;5210362;28;8775;-78
2022/08/13 09:02:16;;;;;;;;;5.25;5.25;;;;;;;;5210602;28;8795;-77
2022/08/13 09:04:54;;;;;;;;;1.00;1.00;;;;;;;;5210565;28;8895;-77
2022/08/13 09:07:46;;;;;;;;;1.00;1.00;;;;;;;;5213412;28;8809;-78
2022/08/13 09:10:18;;;;;;;;;2.00;2.00;;;;;;;;5177689;28;8779;-78
2022/08/13 09:13:07;;;;;;;;;0.50;0.50;;;;;;;;5212956;28;8779;-78
2022/08/13 09:15:40;;;;;;;;;2.50;2.50;;;;;;;;5228117;28;8767;-77
2022/08/13 09:18:11;;;;;;;;;10.50;10.50;;;;;;;;5227825;28;8822;-77
2022/08/13 09:20:42;;;;;;;;;5.50;5.50;;;;;;;;5210627;28;8845;-78
2022/08/13 09:23:14;;;;;;;;;16.50;16.50;;;;;;;;5229717;28;8868;-79
2022/08/13 09:25:51;;;;;;;;;4.00;4.00;;;;;;;;5228835;28;8767;-79
2022/08/13 09:28:26;;;;;;;;;4.25;4.25;;;;;;;;5194804;28;8913;-78
2022/08/13 09:30:58;;;;;;;;;3.75;3.75;;;;;;;;5229258;28;8799;-79
2022/08/13 09:33:29;;;;;;;;;2.00;2.00;;;;;;;;5194529;28;8868;-79
2022/08/13 09:36:00;;;;;;;;;9.75;9.75;;;;;;;;5210767;28;9583;-79
2022/08/13 09:38:31;;;;;;;;;0.67;0.67;;;;;;;;5178125;28;8807;-80
2022/08/13 09:41:02;;;;;;;;;2.25;2.25;;;;;;;;5193841;28;10719;-80
2022/08/13 09:43:39;;;;;;;;;0.33;0.33;;;;;;;;5193219;28;8833;-79
2022/08/13 09:46:10;;;;;;;;;0.75;0.75;;;;;;;;5176768;28;10248;-78
2022/08/13 09:48:41;;;;;;;;;2.00;2.00;;;;;;;;5192696;28;8802;-77
2022/08/13 09:51:13;;;;;;;;;1.25;1.25;;;;;;;;5228102;28;8900;-80
2022/08/13 09:53:47;;;;;;;;;1.25;1.25;;;;;;;;5208579;28;8889;-79
2022/08/13 09:56:18;;;;;;;;;1.00;1.00;;;;;;;;5192683;28;9595;-79
2022/08/13 09:58:50;;;;;;;;;6.50;6.50;;;;;;;;5209005;28;8810;-79
2022/08/13 10:01:21;;;;;;;;;2.75;2.75;;;;;;;;5192899;28;8790;-79
2022/08/13 10:03:52;;;;;;;;;3.50;3.50;;;;;;;;5209313;28;8825;-79
2022/08/13 10:06:41;;;;;;;;;8.00;8.00;;;;;;;;5209103;28;8787;-79
2022/08/13 10:09:12;;;;;;;;;7.50;7.50;;;;;;;;5209249;28;8791;-79
2022/08/13 10:11:43;;;;;;;;;1.75;1.75;;;;;;;;5209009;28;8787;-79
2022/08/13 10:14:14;;;;;;;;;0.25;0.25;;;;;;;;5208903;28;8791;-79
2022/08/13 10:16:45;;;;;;;;;2.00;2.00;;;;;;;;5208931;28;8885;-81
2022/08/13 10:19:34;;;;;;;;;1.00;1.00;;;;;;;;5195033;28;11358;-80
2022/08/13 10:22:05;;;;;;;;;2.33;2.33;;;;;;;;5208717;28;8801;-79
2022/08/13 10:24:36;;;;;;;;;0.75;0.75;;;;;;;;5175893;28;8999;-79
2022/08/13 10:27:07;;;;;;;;;1.75;1.75;;;;;;;;5226622;28;8917;-80
2022/08/13 10:29:38;;;;;;;;;1.00;1.00;;;;;;;;5208537;28;8803;-80
2022/08/13 10:32:09;;;;;;;;;1.00;1.00;;;;;;;;5192241;28;9178;-79
2022/08/13 10:34:43;;;;;;;;;1.00;1.00;;;;;;;;5209096;28;8795;-80
2022/08/13 10:37:14;;;;;;;;;1.25;1.25;;;;;;;;5192419;28;8849;-79
2022/08/13 10:39:45;;;;;;;;;4.00;4.00;;;;;;;;5192462;28;8775;-79
2022/08/13 10:42:16;;;;;;;;;3.00;3.00;;;;;;;;5226384;28;8909;-79
2022/08/13 10:44:51;;;;;;;;;14.25;14.25;;;;;;;;5209150;28;8787;-80
2022/08/13 10:47:24;;;;;;;;;1.25;1.25;;;;;;;;5176219;28;8921;-79
2022/08/13 10:49:55;;;;;;;;;3.00;3.00;;;;;;;;5226128;28;8793;-79
2022/08/13 10:52:26;;;;;;;;;12.00;12.00;;;;;;;;5226270;28;8783;-80
2022/08/13 10:55:00;;;;;;;;;1.00;1.00;;;;;;;;5191413;28;8775;-79
2022/08/13 10:57:30;;;;;;;;;4.00;4.00;;;;;;;;5208473;28;8876;-80
2022/08/13 11:00:04;;;;;;;;;4.25;4.25;;;;;;;;5208726;28;8767;-79
2022/08/13 11:02:53;;;;;;;;;5.50;5.50;;;;;;;;5210958;28;8810;-80
2022/08/13 11:05:25;;;;;;;;;1.00;1.00;;;;;;;;5191667;28;8770;-80
2022/08/13 11:07:56;;;;;;;;;5.00;5.00;;;;;;;;5208315;28;8869;-79
2022/08/13 11:10:27;;;;;;;;;3.50;3.50;;;;;;;;5208293;28;8759;-79
2022/08/13 11:12:58;;;;;;;;;1.75;1.75;;;;;;;;5208206;28;8893;-81
2022/08/13 11:15:29;;;;;;;;;0.00;0.00;;;;;;;;5191479;28;8771;-80
2022/08/13 11:18:18;;;;;;;;;1.00;1.00;;;;;;;;5207803;28;11472;-80
2022/08/13 11:21:08;;;;;;;;;3.50;3.50;;;;;;;;5191705;28;8798;-79
2022/08/13 11:23:39;;;;;;;;;2.25;2.25;;;;;;;;5191588;28;9517;-79
2022/08/13 11:26:10;;;;;;;;;0.75;0.75;;;;;;;;5208338;28;8791;-80
2022/08/13 11:28:41;;;;;;;;;1.00;1.00;;;;;;;;5209886;28;8783;-80
2022/08/13 11:31:31;;;;;;;;;2.00;2.00;;;;;;;;5194476;28;8795;-78
2022/08/13 11:34:04;;;;;;;;;2.00;2.00;;;;;;;;5191479;28;8779;-78
2022/08/13 11:36:35;;;;;;;;;3.50;3.50;;;;;;;;5191411;28;8791;-80
2022/08/13 11:39:07;;;;;;;;;1.00;1.00;;;;;;;;5191102;28;8814;-80
2022/08/13 11:41:38;;;;;;;;;3.00;3.00;;;;;;;;5207510;28;8771;-79
2022/08/13 11:44:11;;;;;;;;;67.60;57.80;;;;;;;;5208298;28;8791;-81
2022/08/13 11:46:46;;;;;;;;;3.50;3.50;;;;;;;;5190988;28;8775;-79
2022/08/13 11:49:21;;;;;;;;;11.00;11.00;;;;;;;;5208491;28;8783;-80
2022/08/13 11:51:52;;;;;;;;;2.25;2.25;;;;;;;;5207708;28;8808;-79
2022/08/13 11:54:23;;;;;;;;;1.00;1.00;;;;;;;;5191383;28;8818;-80
2022/08/13 11:56:55;;;;;;;;;5.25;5.25;;;;;;;;5207659;28;8811;-81
2022/08/13 11:59:25;;;;;;;;;4.75;4.75;;;;;;;;5207353;28;8782;-80
2022/08/13 12:01:57;;;;;;;;;3.50;3.50;;;;;;;;5208149;28;8881;-80
2022/08/13 12:04:27;;;;;;;;;1.00;0.00;;;;;;;;5191116;28;8782;-79
2022/08/13 12:07:17;;;;;;;;;13.50;13.50;;;;;;;;5210351;28;8806;-80
2022/08/13 12:10:07;;;;;;;;;2.75;2.75;;;;;;;;5211351;28;8783;-79
2022/08/13 12:12:38;;;;;;;;;11.25;11.25;;;;;;;;5191732;28;8948;-79
2022/08/13 12:15:09;;;;;;;;;6.25;6.25;;;;;;;;5211960;28;8826;-80
2022/08/13 12:17:43;;;;;;;;;3.00;3.00;;;;;;;;5217506;28;8846;-78
2022/08/13 12:20:22;;;;;;;;;6.00;6.00;;;;;;;;5219715;28;8860;-81
2022/08/13 12:22:54;;;;;;;;;1.50;1.50;;;;;;;;5205113;28;8933;-80
2022/08/13 12:25:26;;;;;;;;;19.80;19.80;;;;;;;;5197038;28;8785;-80
2022/08/13 12:28:12;;;;;;;;;2.25;2.25;;;;;;;;5214630;28;8799;-79
2022/08/13 12:31:03;;;;;;;;;4.00;4.00;;;;;;;;5219029;28;8803;-79
2022/08/13 12:33:36;;;;;;;;;3.50;3.50;;;;;;;;5222082;28;8793;-79
2022/08/13 12:36:12;;;;;;;;;2.25;2.25;;;;;;;;5190609;28;9520;-84
2022/08/13 12:38:43;;;;;;;;;2.00;2.00;;;;;;;;5208237;28;8809;-81
2022/08/13 12:41:33;;;;;;;;;16.00;16.00;;;;;;;;5204900;28;8853;-81
2022/08/13 12:44:04;;;;;;;;;3.25;3.25;;;;;;;;5211047;28;8803;-79
2022/08/13 12:46:54;;;;;;;;;2.75;2.75;;;;;;;;5219445;28;8817;-80
2022/08/13 12:49:25;;;;;;;;;3.75;3.75;;;;;;;;5210112;28;8790;-79
2022/08/13 12:51:56;;;;;;;;;3.00;3.00;;;;;;;;5193496;28;8791;-81
2022/08/13 12:54:27;;;;;;;;;6.25;6.25;;;;;;;;5209690;28;8916;-81
2022/08/13 12:56:58;;;;;;;;;4.00;4.00;;;;;;;;5210489;28;9567;-79
2022/08/13 12:59:29;;;;;;;;;2.50;2.50;;;;;;;;5222008;28;8813;-81
2022/08/13 13:02:02;;;;;;;;;20.00;20.00;;;;;;;;5221969;28;8856;-79
2022/08/13 13:04:33;;;;;;;;;8.00;7.00;;;;;;;;5194027;28;8810;-80
2022/08/13 13:07:04;;;;;;;;;7.25;7.25;;;;;;;;5193962;28;8808;-80
2022/08/13 13:09:35;;;;;;;;;10.00;10.00;;;;;;;;5194634;28;9552;-78
2022/08/13 13:12:06;;;;;;;;;10.75;10.75;;;;;;;;5227964;28;9533;-79
2022/08/13 13:14:37;;;;;;;;;4.25;4.25;;;;;;;;5218500;28;8793;-80
2022/08/13 13:17:26;;;;;;;;;3.25;3.25;;;;;;;;5175424;28;8859;-79
2022/08/13 13:20:16;;;;;;;;;8.50;8.50;;;;;;;;5221238;28;8803;-80
2022/08/13 13:23:05;;;;;;;;;3.75;3.75;;;;;;;;5210537;28;8771;-81
2022/08/13 13:25:36;;;;;;;;;12.75;12.75;;;;;;;;5227945;28;8803;-82
2022/08/13 13:28:08;;;;;;;;;5.00;5.00;;;;;;;;5210176;28;8803;-80
2022/08/13 13:30:39;;;;;;;;;8.00;8.00;;;;;;;;5193396;28;8779;-79
2022/08/13 13:33:10;;;;;;;;;2.75;2.75;;;;;;;;5209668;28;8893;-82
2022/08/13 13:35:42;;;;;;;;;18.25;18.25;;;;;;;;5173813;28;8825;-80
2022/08/13 13:38:32;;;;;;;;;4.50;4.50;;;;;;;;5178652;28;8860;-81
2022/08/13 13:41:03;;;;;;;;;4.00;4.00;;;;;;;;5194192;28;8819;-81
2022/08/13 13:43:36;;;;;;;;;4.50;4.50;;;;;;;;5185531;28;8840;-81
2022/08/13 13:46:27;;;;;;;;;6.25;6.25;;;;;;;;5208654;28;8803;-82
2022/08/13 13:48:58;;;;;;;;;7.00;7.00;;;;;;;;5183040;28;8831;-82
2022/08/13 13:51:29;;;;;;;;;5.25;5.25;;;;;;;;5173714;28;8789;-80
2022/08/13 13:54:00;;;;;;;;;5.00;5.00;;;;;;;;5191173;28;8812;-79
2022/08/13 13:56:31;;;;;;;;;3.00;3.00;;;;;;;;5164360;28;8856;-81
2022/08/13 13:59:03;;;;;;;;;8.00;8.00;;;;;;;;5181048;28;8836;-82
2022/08/13 14:01:52;;;;;;;;;7.00;7.00;;;;;;;;5231667;28;8833;-78
2022/08/13 14:04:23;;;;;;;;;5.00;5.00;;;;;;;;5211928;28;9007;-79
2022/08/13 14:07:13;;;;;;;;;4.50;4.50;;;;;;;;5212937;28;8782;-79
2022/08/13 14:09:47;;;;;;;;;3.00;3.00;;;;;;;;5226712;28;8787;-77
2022/08/13 14:12:37;;;;;;;;;8.75;8.75;;;;;;;;5212247;28;8771;-77
2022/08/13 14:15:32;;;;;;;;;2.75;2.75;;;;;;;;5227168;28;8787;-80
2022/08/13 14:18:07;;;;;;;;;4.25;3.50;;;;;;;;5192247;28;8815;-81
2022/08/13 14:20:44;;;;;;;;;3.00;3.00;;;;;;;;5211864;28;8787;-80
2022/08/13 14:23:15;;;;;;;;;4.00;4.00;;;;;;;;5226861;28;8868;-81
2022/08/13 14:25:47;;;;;;;;;3.00;3.00;;;;;;;;5178199;28;8860;-79
2022/08/13 14:28:19;;;;;;;;;1.75;1.75;;;;;;;;5210969;28;8933;-79
2022/08/13 14:30:50;;;;;;;;;6.50;6.50;;;;;;;;5206450;28;8799;-79
2022/08/13 14:33:21;;;;;;;;;3.50;3.50;;;;;;;;5221153;28;8802;-78
2022/08/13 14:35:52;;;;;;;;;4.00;4.00;;;;;;;;5226563;28;8926;-78
2022/08/13 14:38:23;;;;;;;;;2.50;2.50;;;;;;;;5180116;28;8813;-81
2022/08/13 14:41:01;;;;;;;;;3.50;3.50;;;;;;;;5177750;28;8831;-83
2022/08/13 14:43:32;;;;;;;;;5.75;5.75;;;;;;;;5191904;28;8839;-80
2022/08/13 14:46:04;;;;;;;;;3.00;3.00;;;;;;;;5205860;28;9236;-75
2022/08/13 14:48:36;;;;;;;;;5.50;5.50;;;;;;;;5206580;28;8852;-77
2022/08/13 14:51:07;;;;;;;;;4.25;4.25;;;;;;;;5171530;28;8782;-77
2022/08/13 14:53:39;;;;;;;;;5.50;5.50;;;;;;;;5188066;28;8874;-78
2022/08/13 14:56:10;;;;;;;;;2.00;2.00;;;;;;;;5171616;28;8829;-77
2022/08/13 14:58:41;;;;;;;;;1.75;1.75;;;;;;;;5172295;28;8898;-75
2022/08/13 15:01:13;;;;;;;;;3.00;3.00;;;;;;;;5188043;28;8777;-77
2022/08/13 15:04:06;;;;;;;;;6.00;6.00;;;;;;;;5174235;28;8789;-76
2022/08/13 15:06:40;;;;;;;;;3.50;3.50;;;;;;;;5205175;28;9561;-76
2022/08/13 15:09:11;;;;;;;;;4.75;4.75;;;;;;;;5190815;28;8804;-76
2022/08/13 15:11:45;;;;;;;;;3.00;3.00;;;;;;;;5181712;28;8935;-74
2022/08/13 15:14:16;;;;;;;;;7.50;7.50;;;;;;;;5205980;28;8817;-74
2022/08/13 15:16:48;;;;;;;;;4.25;4.00;;;;;;;;5199689;28;8807;-77
2022/08/13 15:19:21;;;;;;;;;3.50;3.50;;;;;;;;5201818;28;8917;-75
2022/08/13 15:21:52;;;;;;;;;7.00;7.00;;;;;;;;5215697;28;8795;-77
2022/08/13 15:24:30;;;;;;;;;5.67;5.67;;;;;;;;5207728;28;8786;-76
2022/08/13 15:27:01;;;;;;;;;14.00;14.00;;;;;;;;5170559;28;8785;-74
2022/08/13 15:29:33;;;;;;;;;5.25;5.25;;;;;;;;5187078;28;8816;-76
2022/08/13 15:32:07;;;;;;;;;6.75;6.75;;;;;;;;5187577;28;9582;-75
2022/08/13 15:34:38;;;;;;;;;7.25;7.25;;;;;;;;5170850;28;8789;-74
2022/08/13 15:37:09;;;;;;;;;13.00;13.00;;;;;;;;5191446;28;8791;-75
2022/08/13 15:39:40;;;;;;;;;9.25;9.25;;;;;;;;5190701;28;8821;-75
2022/08/13 15:42:11;;;;;;;;;10.00;10.00;;;;;;;;5176759;28;8791;-76
2022/08/13 15:44:42;;;;;;;;;8.25;8.25;;;;;;;;5180736;28;8769;-76
2022/08/13 15:47:16;;;;;;;;;7.33;7.33;;;;;;;;5174281;28;8817;-77
2022/08/13 15:49:49;;;;;;;;;13.50;13.50;;;;;;;;5207867;28;8827;-77
2022/08/13 15:52:21;;;;;;;;;13.50;13.50;;;;;;;;5213834;28;8876;-74
2022/08/13 15:54:52;;;;;;;;;12.00;12.00;;;;;;;;5211192;28;8807;-76
2022/08/13 15:57:23;;;;;;;;;14.25;14.25;;;;;;;;5211940;28;8819;-75
2022/08/13 15:59:54;;;;;;;;;12.00;12.00;;;;;;;;5192071;28;8825;-75